Terminal Aerodrome Forecast
Issued by NWS

Home | Current Version | Previous Version | Text Only | Print | Product List | Glossary On
Versions: 1 2 3 4 5 6 7 8 9 10 11 12 13 14 15 16 17 18 19 20 21 22 23 24
916
FTUS46 KSEW 131133
TAFSEA
TAF
KSEA 131133Z 1312/1418 18014KT P6SM SCT025 BKN045
      TEMPO 1312/1316 -SHRA BKN025 OVC045
     FM131600 18010KT P6SM SCT030 BKN050
     FM132000 15008KT P6SM -RA OVC040
      TEMPO 1400/1404 4SM -RA
     FM140400 17012KT 4SM -RA SCT010 OVC020=

USA.gov is the U.S. government's official web portal to all federal, state and local government web resources and services.